TCA7378 TGPY-MDLR
Flight info
| Callsign | TCA7378 |
|---|---|
| Flight time | N/A |
| Altitude | 36000 |
| Route | GND DCT KIKER DCT DUNOT DUNOT2D |
| Aircraft | B738/M-SDE2E3FGHIRWXY/LB1 |
Departure
| Time | 2026-04-15 20:25 |
|---|---|
| Airport | Maurice Bishop International Airport (TGPY) |
Arrival
| Time | N/A |
|---|---|
| Airport | Casa De Campo International Airport (MDLR) |
| Time | Latitude | Longitude | Altitude | Speed | Heading |
|---|---|---|---|---|---|
| 2026-04-15 20:13 | 12.00650 | -61.78530 | 73 ft | 0 kts | 0° |
| 2026-04-15 20:18 | 12.00649 | -61.78530 | 73 ft | 1 kts | 0° |
| 2026-04-15 20:19 | 12.00624 | -61.78530 | 63 ft | 4 kts | 360° |
| 2026-04-15 20:19 | 12.00601 | -61.78529 | 72 ft | 4 kts | 334° |
| 2026-04-15 20:19 | 12.00587 | -61.78512 | 72 ft | 4 kts | 275° |
| 2026-04-15 20:19 | 12.00586 | -61.78495 | 69 ft | 1 kts | 270° |
| 2026-04-15 20:20 | 12.00586 | -61.78493 | 72 ft | 1 kts | 270° |
| 2026-04-15 20:21 | 12.00586 | -61.78497 | 72 ft | 3 kts | 270° |
| 2026-04-15 20:21 | 12.00586 | -61.78544 | 68 ft | 10 kts | 270° |
| 2026-04-15 20:22 | 12.00526 | -61.78598 | 62 ft | 16 kts | 180° |
| 2026-04-15 20:22 | 12.00413 | -61.78639 | 56 ft | 20 kts | 251° |
| 2026-04-15 20:22 | 12.00408 | -61.78786 | 61 ft | 22 kts | 270° |
| 2026-04-15 20:22 | 12.00410 | -61.78961 | 57 ft | 27 kts | 270° |
| 2026-04-15 20:23 | 12.00411 | -61.79127 | 58 ft | 28 kts | 270° |
| 2026-04-15 20:23 | 12.00412 | -61.79320 | 56 ft | 27 kts | 270° |
| 2026-04-15 20:23 | 12.00412 | -61.79502 | 59 ft | 25 kts | 270° |
| 2026-04-15 20:23 | 12.00413 | -61.79675 | 58 ft | 24 kts | 270° |
| 2026-04-15 20:24 | 12.00452 | -61.79827 | 61 ft | 20 kts | 276° |
| 2026-04-15 20:24 | 12.00416 | -61.79811 | 60 ft | 0 kts | 89° |
| 2026-04-15 20:24 | 12.00415 | -61.79702 | 57 ft | 44 kts | 90° |
| 2026-04-15 20:25 | 12.00411 | -61.79175 | 61 ft | 103 kts | 90° |
| 2026-04-15 20:25 | 12.00405 | -61.78259 | 61 ft | 153 kts | 90° |
| 2026-04-15 20:25 | 12.00394 | -61.77085 | 279 ft | 176 kts | 91° |
| 2026-04-15 20:25 | 12.00370 | -61.75778 | 744 ft | 194 kts | 93° |
| 2026-04-15 20:26 | 12.00339 | -61.74378 | 1311 ft | 198 kts | 94° |
| 2026-04-15 20:26 | 12.00302 | -61.72960 | 1883 ft | 200 kts | 94° |
| 2026-04-15 20:26 | 12.00274 | -61.71466 | 2093 ft | 220 kts | 91° |
| 2026-04-15 20:26 | 12.00547 | -61.69890 | 2528 ft | 231 kts | 77° |
| 2026-04-15 20:27 | 12.01237 | -61.68333 | 2752 ft | 254 kts | 55° |
| 2026-04-15 20:27 | 12.02536 | -61.67107 | 3357 ft | 264 kts | 34° |
| 2026-04-15 20:27 | 12.04239 | -61.66353 | 4100 ft | 269 kts | 21° |
| 2026-04-15 20:27 | 12.06126 | -61.66211 | 4743 ft | 282 kts | 349° |
| 2026-04-15 20:28 | 12.07867 | -61.67161 | 5368 ft | 292 kts | 316° |
| 2026-04-15 20:28 | 12.09224 | -61.68722 | 5992 ft | 295 kts | 311° |
| 2026-04-15 20:28 | 12.10560 | -61.70319 | 6703 ft | 295 kts | 311° |
| 2026-04-15 20:28 | 12.11892 | -61.71913 | 7376 ft | 295 kts | 311° |
| 2026-04-15 20:29 | 12.13239 | -61.73527 | 7957 ft | 300 kts | 312° |
| 2026-04-15 20:29 | 12.14600 | -61.75149 | 8565 ft | 302 kts | 311° |
| 2026-04-15 20:29 | 12.15956 | -61.76757 | 9155 ft | 304 kts | 311° |
| 2026-04-15 20:29 | 12.17338 | -61.78396 | 9769 ft | 304 kts | 311° |
| 2026-04-15 20:30 | 12.18729 | -61.80046 | 10242 ft | 311 kts | 311° |
| 2026-04-15 20:30 | 12.20188 | -61.81765 | 10356 ft | 329 kts | 310° |
| 2026-04-15 20:30 | 12.21726 | -61.83578 | 10502 ft | 346 kts | 310° |
| 2026-04-15 20:30 | 12.23337 | -61.85479 | 10639 ft | 361 kts | 310° |
| 2026-04-15 20:31 | 12.25015 | -61.87455 | 10807 ft | 375 kts | 310° |
| 2026-04-15 20:31 | 12.26738 | -61.89486 | 11192 ft | 380 kts | 310° |
| 2026-04-15 20:31 | 12.28450 | -61.91503 | 11719 ft | 381 kts | 310° |
| 2026-04-15 20:31 | 12.30189 | -61.93554 | 12269 ft | 382 kts | 310° |
| 2026-04-15 20:32 | 12.31936 | -61.95612 | 12799 ft | 384 kts | 310° |
| 2026-04-15 20:32 | 12.33688 | -61.97677 | 13320 ft | 385 kts | 309° |
| 2026-04-15 20:32 | 12.35443 | -61.99745 | 13836 ft | 385 kts | 309° |
| 2026-04-15 20:32 | 12.37201 | -62.01818 | 14332 ft | 386 kts | 309° |
| 2026-04-15 20:33 | 12.38964 | -62.03899 | 14803 ft | 388 kts | 309° |
| 2026-04-15 20:33 | 12.40712 | -62.05963 | 15247 ft | 390 kts | 308° |
| 2026-04-15 20:33 | 12.42489 | -62.08060 | 15736 ft | 390 kts | 308° |
| 2026-04-15 20:33 | 12.44269 | -62.10161 | 16198 ft | 391 kts | 308° |
| 2026-04-15 20:34 | 12.46056 | -62.12269 | 16629 ft | 393 kts | 308° |
| 2026-04-15 20:34 | 12.47848 | -62.14385 | 17058 ft | 394 kts | 308° |
| 2026-04-15 20:34 | 12.49645 | -62.16507 | 17501 ft | 395 kts | 308° |
| 2026-04-15 20:34 | 12.51447 | -62.18635 | 17936 ft | 396 kts | 307° |
| 2026-04-15 20:35 | 12.53253 | -62.20771 | 18324 ft | 398 kts | 307° |
| 2026-04-15 20:35 | 12.55062 | -62.22911 | 18692 ft | 400 kts | 307° |
| 2026-04-15 20:35 | 12.56861 | -62.25039 | 19022 ft | 402 kts | 307° |
| 2026-04-15 20:35 | 12.58695 | -62.27207 | 19350 ft | 404 kts | 307° |
| 2026-04-15 20:36 | 12.60540 | -62.29387 | 19667 ft | 406 kts | 307° |
| 2026-04-15 20:36 | 12.62391 | -62.31580 | 20000 ft | 408 kts | 307° |
| 2026-04-15 20:36 | 12.64250 | -62.33783 | 20320 ft | 410 kts | 307° |
| 2026-04-15 20:36 | 12.66121 | -62.35995 | 20614 ft | 412 kts | 307° |
| 2026-04-15 20:37 | 12.68000 | -62.38221 | 20908 ft | 414 kts | 307° |
| 2026-04-15 20:37 | 12.69886 | -62.40454 | 21204 ft | 416 kts | 307° |
| 2026-04-15 20:37 | 12.71780 | -62.42698 | 21511 ft | 417 kts | 307° |
| 2026-04-15 20:37 | 12.73652 | -62.44917 | 21786 ft | 418 kts | 307° |